Time;durP1;ratioP1;P1;durP2;ratioP2;P2;SDS_P1;SDS_P2;PMS_P1;PMS_P2;Temp;Humidity;BMP_temperature;BMP_pressure;BME280_temperature;BME280_humidity;BME280_pressure;Samples;Min_cycle;Max_cycle;Signal;HPM_P1;HPM_P2
2023/05/07 00:00:46;;;;;;;3.57;3.27;;;10.50;99.90;;;;;;2018612;29;20244;-79
2023/05/07 00:01:47;;;;;;;3.77;3.10;;;10.50;99.90;;;;;;2015146;29;20726;-81
2023/05/07 00:02:49;;;;;;;4.40;3.20;;;10.50;99.90;;;;;;2014717;29;20242;-82
2023/05/07 00:03:50;;;;;;;4.40;3.15;;;10.50;99.90;;;;;;2018357;29;20226;-81
2023/05/07 00:04:51;;;;;;;3.83;3.17;;;10.50;99.90;;;;;;2014943;29;20234;-80
2023/05/07 00:05:55;;;;;;;6.15;3.45;;;10.40;99.90;;;;;;2018774;29;20241;-82
2023/05/07 00:06:56;;;;;;;5.32;3.53;;;10.30;99.90;;;;;;2018814;29;20324;-82
2023/05/07 00:07:57;;;;;;;5.80;3.30;;;11.90;99.90;;;;;;2017677;29;20230;-81
2023/05/07 00:08:58;;;;;;;5.83;3.00;;;10.40;99.90;;;;;;2026356;29;20241;-80
2023/05/07 00:09:59;;;;;;;3.83;2.90;;;10.40;99.90;;;;;;2021181;29;20244;-80
2023/05/07 00:10:59;;;;;;;5.47;2.80;;;11.70;99.90;;;;;;2014570;29;20802;-80
2023/05/07 00:12:00;;;;;;;3.13;2.60;;;10.30;99.90;;;;;;2018558;29;20233;-79
2023/05/07 00:13:01;;;;;;;4.15;3.00;;;10.90;99.90;;;;;;2017327;29;20829;-79
2023/05/07 00:14:02;;;;;;;4.53;3.17;;;11.50;99.90;;;;;;2018766;29;20204;-79
2023/05/07 00:15:04;;;;;;;3.07;2.77;;;10.30;99.90;;;;;;2018772;29;20268;-79
2023/05/07 00:16:05;;;;;;;3.83;2.90;;;10.30;99.90;;;;;;2022168;29;20341;-80
2023/05/07 00:17:05;;;;;;;6.38;2.90;;;10.30;99.90;;;;;;2025932;29;20292;-81
2023/05/07 00:18:06;;;;;;;7.60;2.90;;;10.30;99.90;;;;;;2017638;29;20210;-80
2023/05/07 00:19:07;;;;;;;4.90;2.87;;;10.30;99.90;;;;;;2018466;29;20193;-79
2023/05/07 00:20:08;;;;;;;4.13;2.80;;;10.30;99.90;;;;;;2022173;29;20225;-80
2023/05/07 00:21:09;;;;;;;6.40;3.22;;;10.20;99.90;;;;;;2007150;29;20202;-79
2023/05/07 00:22:10;;;;;;;4.37;2.70;;;10.20;99.90;;;;;;2002865;29;20285;-80
2023/05/07 00:23:10;;;;;;;5.33;3.00;;;10.20;99.90;;;;;;2003124;29;20220;-81
2023/05/07 00:24:11;;;;;;;6.57;2.93;;;10.20;99.90;;;;;;2006676;29;20187;-80
2023/05/07 00:25:12;;;;;;;3.80;2.90;;;11.70;99.90;;;;;;2014383;29;20277;-80
2023/05/07 00:26:12;;;;;;;6.27;2.60;;;10.20;99.90;;;;;;2006715;29;20816;-82
2023/05/07 00:27:13;;;;;;;4.87;3.23;;;10.80;99.90;;;;;;2006705;29;20218;-79
2023/05/07 00:28:14;;;;;;;6.20;3.20;;;10.20;99.90;;;;;;2010484;29;20210;-80
2023/05/07 00:29:15;;;;;;;5.20;2.90;;;10.20;99.90;;;;;;2018387;29;20201;-82
2023/05/07 00:30:16;;;;;;;6.10;3.20;;;10.30;99.90;;;;;;2014217;29;20193;-80
2023/05/07 00:31:16;;;;;;;3.67;3.20;;;10.20;99.90;;;;;;2006793;29;20204;-79
2023/05/07 00:32:17;;;;;;;4.27;3.30;;;10.30;99.90;;;;;;2016765;29;20208;-80
2023/05/07 00:33:18;;;;;;;4.33;3.10;;;10.30;99.90;;;;;;2021981;29;20193;-81
2023/05/07 00:34:19;;;;;;;3.20;2.90;;;10.30;99.90;;;;;;2025952;29;20190;-81
2023/05/07 00:35:20;;;;;;;5.45;3.03;;;10.40;99.90;;;;;;2016549;29;20187;-81
2023/05/07 00:36:21;;;;;;;5.03;3.00;;;10.30;99.90;;;;;;2015232;29;20248;-79
2023/05/07 00:37:22;;;;;;;3.23;2.70;;;10.40;99.90;;;;;;2029720;29;20226;-79
2023/05/07 00:38:22;;;;;;;4.17;2.90;;;10.40;99.90;;;;;;2025678;29;20265;-82
2023/05/07 00:39:23;;;;;;;4.30;3.10;;;10.40;99.90;;;;;;2026296;29;20729;-81
2023/05/07 00:40:24;;;;;;;4.50;2.93;;;10.30;99.90;;;;;;2026161;29;20240;-81
2023/05/07 00:41:25;;;;;;;3.90;2.78;;;10.20;99.90;;;;;;2026189;29;20240;-82
2023/05/07 00:42:25;;;;;;;4.87;2.93;;;10.30;99.90;;;;;;2010543;29;20256;-80
2023/05/07 00:43:27;;;;;;;4.90;3.17;;;10.30;99.90;;;;;;2010967;29;20227;-81
2023/05/07 00:44:28;;;;;;;3.55;2.63;;;10.30;99.90;;;;;;2010552;29;20236;-80
2023/05/07 00:45:29;;;;;;;3.83;2.85;;;10.30;99.90;;;;;;1996212;29;20690;-81
2023/05/07 00:46:31;;;;;;;5.60;2.88;;;11.10;99.90;;;;;;2011367;29;20241;-81
2023/05/07 00:47:31;;;;;;;4.20;2.90;;;10.40;99.90;;;;;;2008367;29;20232;-82
2023/05/07 00:48:32;;;;;;;4.20;3.30;;;10.30;99.90;;;;;;2011389;29;20384;-81
2023/05/07 00:49:42;;;;;;;4.87;3.00;;;10.40;99.90;;;;;;2015852;29;20276;-81
2023/05/07 00:50:44;;;;;;;5.40;3.10;;;10.40;99.90;;;;;;2019671;29;20314;-80
2023/05/07 00:51:45;;;;;;;3.58;2.97;;;10.40;99.90;;;;;;2024932;29;20285;-81
2023/05/07 00:52:46;;;;;;;3.22;2.60;;;10.40;99.90;;;;;;2018040;29;20313;-80
2023/05/07 00:53:47;;;;;;;8.27;2.80;;;11.70;99.90;;;;;;2006897;29;20636;-81
2023/05/07 00:54:48;;;;;;;4.82;3.10;;;10.40;99.90;;;;;;2018063;29;20624;-80
2023/05/07 00:55:49;;;;;;;5.90;2.80;;;10.40;99.90;;;;;;2018109;29;20271;-81
2023/05/07 00:56:50;;;;;;;5.00;3.70;;;10.40;99.90;;;;;;2025649;29;20256;-81
2023/05/07 00:57:52;;;;;;;4.40;3.30;;;10.50;99.90;;;;;;2018448;29;20234;-81
2023/05/07 00:58:52;;;;;;;4.07;3.38;;;10.50;99.90;;;;;;2018138;29;20481;-81
2023/05/07 00:59:53;;;;;;;3.77;3.13;;;10.50;99.90;;;;;;2013975;29;20235;-82
2023/05/07 01:00:54;;;;;;;6.03;3.63;;;10.50;99.90;;;;;;2013991;29;21054;-79
2023/05/07 01:01:55;;;;;;;4.90;3.00;;;10.50;99.90;;;;;;2006404;29;20235;-81
2023/05/07 01:02:56;;;;;;;3.87;3.10;;;10.50;99.90;;;;;;2021114;29;20244;-82
2023/05/07 01:03:57;;;;;;;6.40;2.95;;;10.40;99.90;;;;;;2013943;29;20265;-81
2023/05/07 01:04:58;;;;;;;3.55;2.92;;;12.30;99.90;;;;;;2013952;29;20756;-81
2023/05/07 01:06:00;;;;;;;4.17;3.10;;;10.30;99.90;;;;;;2010950;29;20306;-80
2023/05/07 01:07:02;;;;;;;4.03;3.25;;;10.40;99.90;;;;;;2017311;29;20245;-81
2023/05/07 01:08:04;;;;;;;3.17;2.65;;;10.40;99.90;;;;;;2010024;29;20313;-81
2023/05/07 01:09:05;;;;;;;5.78;2.92;;;10.40;99.90;;;;;;2008287;29;20741;-81
2023/05/07 01:10:08;;;;;;;4.23;3.23;;;10.30;99.90;;;;;;2018252;29;20258;-81
2023/05/07 01:11:10;;;;;;;3.40;2.72;;;10.30;99.90;;;;;;2023587;29;21021;-81
2023/05/07 01:12:11;;;;;;;5.00;3.22;;;10.20;99.90;;;;;;2014019;29;20287;-81
2023/05/07 01:13:14;;;;;;;3.70;3.20;;;11.20;99.90;;;;;;2021909;29;20197;-81
2023/05/07 01:14:14;;;;;;;4.20;3.20;;;10.30;99.90;;;;;;2010318;29;20198;-79
2023/05/07 01:15:15;;;;;;;4.00;3.10;;;10.20;99.90;;;;;;2010297;29;20680;-80
2023/05/07 01:16:16;;;;;;;6.22;3.15;;;10.20;99.90;;;;;;2009586;29;20198;-81
2023/05/07 01:17:17;;;;;;;4.70;3.87;;;10.20;99.90;;;;;;2010076;29;20783;-80
2023/05/07 01:18:18;;;;;;;5.70;3.60;;;10.90;99.90;;;;;;2006734;29;20576;-81
2023/05/07 01:19:19;;;;;;;4.13;2.63;;;10.30;99.90;;;;;;2017990;29;20193;-81
2023/05/07 01:20:20;;;;;;;4.17;3.10;;;10.30;99.90;;;;;;2010474;29;20200;-81
2023/05/07 01:21:26;;;;;;;3.53;3.00;;;10.50;99.90;;;;;;2014659;29;20230;-80
2023/05/07 01:22:39;;;;;;;4.25;3.33;;;10.30;99.90;;;;;;2025852;29;20228;-81
2023/05/07 01:23:40;;;;;;;3.88;3.30;;;10.40;99.90;;;;;;2019353;29;20321;-81
2023/05/07 01:24:42;;;;;;;6.20;3.10;;;11.10;99.90;;;;;;2033255;29;20235;-79
2023/05/07 01:25:43;;;;;;;7.88;4.00;;;11.90;99.90;;;;;;2034392;29;20260;-78
2023/05/07 01:26:44;;;;;;;4.87;3.30;;;10.30;99.90;;;;;;2026069;29;20261;-80
2023/05/07 01:27:45;;;;;;;3.42;2.90;;;10.30;99.90;;;;;;2019644;29;20298;-79
2023/05/07 01:28:46;;;;;;;4.15;2.95;;;10.40;99.90;;;;;;2016184;29;20262;-80
2023/05/07 01:29:47;;;;;;;4.20;3.00;;;10.40;99.90;;;;;;2020858;29;20232;-79
2023/05/07 01:30:55;;;;;;;3.93;3.00;;;10.40;99.90;;;;;;2022079;29;20225;-80
2023/05/07 01:32:01;;;;;;;5.85;3.42;;;10.40;99.90;;;;;;2018327;29;20225;-81
2023/05/07 01:33:09;;;;;;;4.70;3.00;;;10.40;99.90;;;;;;2003683;29;20229;-81
2023/05/07 01:34:12;;;;;;;6.32;3.58;;;12.50;99.90;;;;;;2012982;29;20201;-79
2023/05/07 01:35:20;;;;;;;6.07;3.15;;;10.40;99.90;;;;;;2015334;29;20218;-82
2023/05/07 01:36:25;;;;;;;3.50;2.88;;;10.40;99.90;;;;;;2018783;29;20240;-80
2023/05/07 01:37:26;;;;;;;7.07;5.40;;;10.40;99.90;;;;;;2023355;29;20248;-80
2023/05/07 01:38:28;;;;;;;3.45;3.10;;;12.00;99.90;;;;;;2028151;29;20229;-80
2023/05/07 01:39:30;;;;;;;4.43;3.47;;;10.30;99.90;;;;;;2027309;29;20769;-82
2023/05/07 01:40:30;;;;;;;5.20;3.15;;;11.40;99.90;;;;;;2027070;29;20229;-82
2023/05/07 01:41:31;;;;;;;4.23;3.30;;;10.30;99.90;;;;;;2026898;29;20293;-81
2023/05/07 01:42:32;;;;;;;6.00;3.50;;;10.30;99.90;;;;;;2026241;29;20327;-81
2023/05/07 01:43:33;;;;;;;4.63;3.20;;;10.30;99.90;;;;;;2017749;29;20264;-81
2023/05/07 01:44:34;;;;;;;3.55;3.13;;;11.00;99.90;;;;;;2003175;29;20287;-81
2023/05/07 01:45:36;;;;;;;3.80;3.00;;;10.40;99.90;;;;;;2006968;29;20318;-81
2023/05/07 01:46:36;;;;;;;4.07;3.10;;;10.30;99.90;;;;;;2014079;29;20253;-82
2023/05/07 01:47:38;;;;;;;3.30;2.97;;;10.40;99.90;;;;;;2006593;29;20286;-80
2023/05/07 01:48:39;;;;;;;4.95;3.00;;;10.80;99.90;;;;;;2014142;29;20233;-81
2023/05/07 01:49:41;;;;;;;7.63;3.30;;;10.90;99.90;;;;;;2006380;29;20256;-79
2023/05/07 01:50:44;;;;;;;4.50;3.10;;;10.40;99.90;;;;;;2007657;29;20234;-82
2023/05/07 01:51:45;;;;;;;3.15;2.85;;;10.40;99.90;;;;;;2026155;29;20239;-81
2023/05/07 01:52:47;;;;;;;3.97;3.10;;;10.30;99.90;;;;;;2014610;29;20679;-81
2023/05/07 01:53:50;;;;;;;5.10;3.92;;;10.30;99.90;;;;;;2010484;29;20236;-81
2023/05/07 01:54:51;;;;;;;4.32;3.05;;;10.20;99.90;;;;;;2018259;29;20234;-82
2023/05/07 01:55:51;;;;;;;6.47;3.50;;;10.10;99.90;;;;;;2013584;29;20237;-80
2023/05/07 01:56:52;;;;;;;3.63;3.13;;;10.10;99.90;;;;;;2021779;29;20240;-81
2023/05/07 01:57:53;;;;;;;4.93;3.20;;;10.00;99.90;;;;;;2009260;29;20230;-80
2023/05/07 01:58:53;;;;;;;4.23;3.47;;;10.00;99.90;;;;;;2012376;29;20233;-80
2023/05/07 01:59:54;;;;;;;6.93;3.23;;;10.00;99.90;;;;;;2024189;29;20237;-80
2023/05/07 02:00:55;;;;;;;4.80;3.17;;;10.50;99.90;;;;;;2008779;29;20251;-81
2023/05/07 02:01:56;;;;;;;7.55;3.70;;;9.80;99.90;;;;;;2009837;29;20722;-79
2023/05/07 02:02:57;;;;;;;3.70;3.10;;;9.80;99.90;;;;;;2016023;29;20225;-81
2023/05/07 02:03:58;;;;;;;3.40;3.10;;;9.80;99.90;;;;;;2016575;29;20288;-80
2023/05/07 02:05:00;;;;;;;4.97;3.03;;;9.80;99.90;;;;;;2019519;29;20233;-81
2023/05/07 02:06:01;;;;;;;4.03;3.50;;;9.90;99.90;;;;;;2024757;29;20325;-79
2023/05/07 02:07:01;;;;;;;4.30;3.20;;;10.00;99.90;;;;;;2025842;29;20217;-81
2023/05/07 02:08:02;;;;;;;5.77;3.97;;;10.60;99.90;;;;;;2025831;29;20483;-80
2023/05/07 02:09:03;;;;;;;4.00;3.03;;;10.00;99.90;;;;;;2025324;29;20200;-80
2023/05/07 02:10:04;;;;;;;3.13;2.80;;;11.80;99.90;;;;;;2025254;29;20200;-81
2023/05/07 02:11:05;;;;;;;4.07;3.08;;;10.00;99.90;;;;;;2017798;29;20202;-81
2023/05/07 02:12:06;;;;;;;5.67;3.47;;;10.00;99.90;;;;;;2025293;29;20273;-79
2023/05/07 02:13:07;;;;;;;3.87;2.93;;;9.90;99.90;;;;;;2017464;29;20245;-79
2023/05/07 02:14:07;;;;;;;4.13;3.50;;;9.90;99.90;;;;;;2010051;29;20249;-81
2023/05/07 02:15:09;;;;;;;4.37;3.53;;;9.80;99.90;;;;;;2014390;29;20280;-79
2023/05/07 02:16:10;;;;;;;4.88;3.50;;;9.80;99.90;;;;;;2014234;29;20235;-80
2023/05/07 02:17:11;;;;;;;3.75;3.38;;;9.80;99.90;;;;;;2013263;29;21011;-81
2023/05/07 02:18:11;;;;;;;5.33;3.70;;;9.80;99.90;;;;;;2005913;29;20207;-81
2023/05/07 02:19:12;;;;;;;3.70;3.30;;;9.80;99.90;;;;;;2017814;29;20201;-80
2023/05/07 02:20:13;;;;;;;4.00;3.17;;;9.80;99.90;;;;;;2025484;29;20588;-81
2023/05/07 02:21:14;;;;;;;4.40;3.30;;;9.90;99.90;;;;;;2017746;29;20256;-81
2023/05/07 02:22:15;;;;;;;4.13;3.70;;;9.80;99.90;;;;;;2017761;29;20280;-79
2023/05/07 02:23:16;;;;;;;4.80;3.30;;;9.80;99.90;;;;;;2017870;29;20437;-81
2023/05/07 02:24:16;;;;;;;5.47;3.43;;;9.80;99.90;;;;;;2010436;29;20227;-79
2023/05/07 02:25:17;;;;;;;5.13;3.77;;;9.70;99.90;;;;;;2010054;29;20187;-80
2023/05/07 02:26:18;;;;;;;5.50;3.57;;;9.80;99.90;;;;;;2017316;29;20199;-81
2023/05/07 02:27:18;;;;;;;3.42;3.00;;;9.80;99.90;;;;;;2006573;29;20257;-80
2023/05/07 02:28:19;;;;;;;4.67;3.43;;;9.80;99.90;;;;;;2006827;29;20201;-80
2023/05/07 02:29:20;;;;;;;6.03;3.50;;;9.70;99.90;;;;;;2007041;29;20209;-79
2023/05/07 02:30:24;;;;;;;5.27;3.80;;;9.60;99.90;;;;;;2014667;29;20242;-80
2023/05/07 02:31:25;;;;;;;5.97;3.15;;;9.60;99.90;;;;;;2023105;29;20249;-79
2023/05/07 02:32:26;;;;;;;3.33;3.00;;;9.70;99.90;;;;;;2023028;29;20236;-80
2023/05/07 02:33:26;;;;;;;5.33;3.77;;;9.60;99.90;;;;;;2023921;29;20270;-80
2023/05/07 02:34:27;;;;;;;7.47;4.03;;;9.60;99.90;;;;;;2026482;29;20278;-81
2023/05/07 02:35:28;;;;;;;5.53;3.43;;;9.70;99.90;;;;;;2016258;29;20232;-81
2023/05/07 02:36:28;;;;;;;4.57;3.50;;;9.70;99.90;;;;;;2016927;29;20237;-79
2023/05/07 02:37:29;;;;;;;5.23;3.37;;;9.60;99.90;;;;;;2022730;29;20716;-81
2023/05/07 02:38:30;;;;;;;5.30;3.87;;;9.60;99.90;;;;;;2022925;29;20259;-80
2023/05/07 02:39:31;;;;;;;4.67;3.43;;;9.50;99.90;;;;;;2026495;29;20322;-81
2023/05/07 02:40:33;;;;;;;4.20;3.60;;;9.60;99.90;;;;;;2026863;29;20257;-80
2023/05/07 02:41:34;;;;;;;8.95;4.10;;;9.50;99.90;;;;;;2015154;29;20222;-81
2023/05/07 02:42:35;;;;;;;4.72;4.22;;;9.50;99.90;;;;;;2018578;29;20300;-80
2023/05/07 02:43:36;;;;;;;3.93;3.20;;;9.50;99.90;;;;;;2018607;29;20283;-80
2023/05/07 02:44:36;;;;;;;8.68;3.75;;;9.50;99.90;;;;;;2026546;29;20223;-81
2023/05/07 02:45:37;;;;;;;4.87;4.30;;;9.50;99.90;;;;;;2026666;29;20716;-80
2023/05/07 02:46:38;;;;;;;6.33;4.00;;;9.50;99.90;;;;;;2019237;29;20270;-81
2023/05/07 02:47:38;;;;;;;5.77;4.17;;;9.50;99.90;;;;;;2011118;29;20657;-81
2023/05/07 02:48:39;;;;;;;5.27;3.90;;;9.50;99.90;;;;;;2010938;29;20237;-80
2023/05/07 02:49:40;;;;;;;4.57;3.27;;;9.50;99.90;;;;;;2014864;29;20236;-81
2023/05/07 02:50:41;;;;;;;4.13;3.17;;;9.40;99.90;;;;;;2007693;29;20234;-81
2023/05/07 02:51:41;;;;;;;5.70;4.60;;;9.50;99.90;;;;;;2016441;29;20610;-81
2023/05/07 02:52:42;;;;;;;5.07;4.57;;;9.50;99.90;;;;;;2007775;29;20332;-81
2023/05/07 02:53:42;;;;;;;7.43;4.93;;;9.50;99.90;;;;;;2007475;29;20255;-80
2023/05/07 02:54:43;;;;;;;6.97;4.23;;;10.40;99.90;;;;;;2018805;29;20251;-79
2023/05/07 02:55:44;;;;;;;5.23;4.13;;;9.60;99.90;;;;;;2018860;29;20260;-78
2023/05/07 02:56:45;;;;;;;7.93;4.47;;;9.60;99.90;;;;;;2014687;29;20239;-80
2023/05/07 02:57:45;;;;;;;8.20;4.37;;;9.60;99.90;;;;;;2018208;29;20630;-81
2023/05/07 02:58:46;;;;;;;6.57;5.13;;;9.60;99.90;;;;;;2009987;29;20314;-80
2023/05/07 02:59:47;;;;;;;6.60;4.10;;;9.60;99.90;;;;;;2015297;29;20878;-81
2023/05/07 03:00:47;;;;;;;6.47;4.50;;;9.70;99.90;;;;;;2008340;29;20234;-80
2023/05/07 03:01:48;;;;;;;6.43;4.13;;;9.70;99.90;;;;;;2010931;29;20242;-81
2023/05/07 03:02:49;;;;;;;7.60;4.50;;;9.70;99.90;;;;;;2019003;29;20228;-81
2023/05/07 03:03:49;;;;;;;5.37;4.20;;;10.50;99.90;;;;;;2026378;29;20241;-79
2023/05/07 03:04:50;;;;;;;4.13;3.70;;;9.70;99.90;;;;;;2023111;29;20232;-81
2023/05/07 03:05:51;;;;;;;5.50;4.27;;;10.50;99.90;;;;;;2011228;29;20317;-81
2023/05/07 03:06:52;;;;;;;7.27;4.00;;;9.70;99.90;;;;;;2016340;29;20297;-81
2023/05/07 03:07:52;;;;;;;4.60;3.63;;;9.70;99.90;;;;;;2016005;29;20242;-80
2023/05/07 03:08:53;;;;;;;6.20;4.00;;;9.70;99.90;;;;;;2011387;29;20292;-81
2023/05/07 03:09:54;;;;;;;4.70;3.87;;;9.70;99.90;;;;;;2019345;29;20233;-80
2023/05/07 03:10:55;;;;;;;5.30;3.83;;;9.70;99.90;;;;;;2022077;29;20243;-80
2023/05/07 03:11:57;;;;;;;6.10;3.70;;;9.60;99.90;;;;;;2015657;29;20863;-81
2023/05/07 03:12:57;;;;;;;5.90;3.80;;;10.40;99.90;;;;;;2010448;29;20294;-81
2023/05/07 03:13:58;;;;;;;5.10;3.73;;;9.60;99.90;;;;;;2015225;29;20247;-80
2023/05/07 03:14:59;;;;;;;4.23;3.70;;;9.60;99.90;;;;;;2014656;29;20241;-80
2023/05/07 03:15:59;;;;;;;4.70;3.50;;;10.40;99.90;;;;;;2011487;29;20891;-82
2023/05/07 03:17:00;;;;;;;6.97;3.80;;;9.60;99.90;;;;;;2018265;29;20239;-81
2023/05/07 03:18:01;;;;;;;3.87;3.30;;;9.50;99.90;;;;;;2009919;29;20235;-81
2023/05/07 03:19:02;;;;;;;3.70;3.30;;;9.50;99.90;;;;;;2010891;29;20211;-81
2023/05/07 03:20:03;;;;;;;5.63;3.60;;;9.40;99.90;;;;;;2019087;29;20225;-82
2023/05/07 03:21:04;;;;;;;3.97;3.55;;;9.30;99.90;;;;;;2015373;29;20441;-79
2023/05/07 03:22:04;;;;;;;7.33;3.57;;;9.30;99.90;;;;;;2027900;29;20259;-79
2023/05/07 03:23:05;;;;;;;4.70;3.87;;;9.30;99.90;;;;;;2027512;29;20191;-78
2023/05/07 03:24:06;;;;;;;4.13;3.47;;;9.30;99.90;;;;;;2014692;29;20205;-80
2023/05/07 03:25:08;;;;;;;7.00;4.50;;;9.30;99.90;;;;;;2012269;29;20255;-80
2023/05/07 03:26:09;;;;;;;5.75;3.33;;;9.30;99.90;;;;;;2019986;29;20314;-82
2023/05/07 03:27:10;;;;;;;5.77;4.00;;;9.30;99.90;;;;;;2027038;29;20300;-80
2023/05/07 03:28:10;;;;;;;5.27;3.47;;;9.30;99.90;;;;;;2019085;29;20219;-80
2023/05/07 03:29:11;;;;;;;4.23;3.30;;;9.40;99.90;;;;;;2016566;29;20196;-80
2023/05/07 03:30:12;;;;;;;5.17;3.57;;;9.40;99.90;;;;;;2019388;29;20713;-81
2023/05/07 03:31:13;;;;;;;4.55;3.70;;;9.40;99.90;;;;;;2019058;29;20706;-80
2023/05/07 03:32:14;;;;;;;8.03;3.80;;;9.30;99.90;;;;;;2011330;29;20227;-81
2023/05/07 03:33:15;;;;;;;5.20;4.20;;;10.20;99.90;;;;;;2019017;29;20212;-80
2023/05/07 03:34:21;;;;;;;4.87;3.40;;;9.30;99.90;;;;;;2015220;29;20207;-81
2023/05/07 03:35:22;;;;;;;5.25;4.28;;;9.30;99.90;;;;;;2015833;29;20493;-81
2023/05/07 03:36:23;;;;;;;4.80;4.00;;;9.30;99.90;;;;;;2026004;29;20238;-80
2023/05/07 03:37:24;;;;;;;6.93;4.20;;;9.20;99.90;;;;;;2018815;29;20242;-80
2023/05/07 03:38:25;;;;;;;5.47;3.70;;;9.20;99.90;;;;;;2015322;29;20264;-80
2023/05/07 03:39:27;;;;;;;4.83;3.53;;;9.20;99.90;;;;;;2015104;29;20659;-82
2023/05/07 03:40:28;;;;;;;4.57;3.10;;;9.20;99.90;;;;;;2015417;29;20283;-80
2023/05/07 03:41:29;;;;;;;3.67;3.20;;;9.10;99.90;;;;;;2015145;29;20742;-79
2023/05/07 03:42:30;;;;;;;5.85;3.50;;;9.20;99.90;;;;;;2017678;29;20239;-82
2023/05/07 03:43:30;;;;;;;3.97;3.33;;;9.20;99.90;;;;;;2018926;29;20226;-80
2023/05/07 03:44:31;;;;;;;4.97;3.50;;;9.20;99.90;;;;;;2011296;29;20284;-81
2023/05/07 03:45:32;;;;;;;4.70;3.80;;;9.20;99.90;;;;;;2024954;29;20238;-81
2023/05/07 03:46:34;;;;;;;4.57;3.50;;;9.20;99.90;;;;;;2022078;29;20237;-80
2023/05/07 03:47:34;;;;;;;6.82;3.88;;;9.20;99.90;;;;;;2006977;29;20242;-81
2023/05/07 03:48:35;;;;;;;7.57;3.97;;;9.10;99.90;;;;;;2003354;29;20728;-81
2023/05/07 03:49:36;;;;;;;4.07;3.53;;;9.10;99.90;;;;;;2003284;29;20236;-82
2023/05/07 03:50:37;;;;;;;5.50;3.47;;;9.10;99.90;;;;;;2018283;29;20776;-80
2023/05/07 03:51:38;;;;;;;4.43;3.58;;;9.10;99.90;;;;;;2010990;29;20236;-81
2023/05/07 03:52:39;;;;;;;4.10;3.70;;;9.00;99.90;;;;;;2011226;29;20847;-79
2023/05/07 03:53:40;;;;;;;4.20;3.43;;;9.00;99.90;;;;;;2003650;29;20315;-81
2023/05/07 03:54:41;;;;;;;7.57;4.13;;;10.90;99.90;;;;;;2018295;29;20237;-81
2023/05/07 03:55:41;;;;;;;5.77;3.70;;;9.10;99.90;;;;;;2018324;29;20479;-81
2023/05/07 03:56:42;;;;;;;5.07;3.60;;;9.10;99.90;;;;;;2010180;29;20238;-81
2023/05/07 03:57:42;;;;;;;8.33;4.10;;;9.10;99.90;;;;;;2003028;29;20656;-82
2023/05/07 03:58:43;;;;;;;7.00;4.10;;;9.00;99.90;;;;;;2006805;29;20314;-80
2023/05/07 03:59:44;;;;;;;4.40;3.77;;;9.00;99.90;;;;;;2007244;29;20340;-81
2023/05/07 04:00:45;;;;;;;3.83;3.07;;;9.00;99.90;;;;;;2008289;29;20230;-82
2023/05/07 04:01:46;;;;;;;4.38;3.97;;;9.00;99.90;;;;;;2011072;29;20738;-80
2023/05/07 04:02:46;;;;;;;4.83;4.07;;;9.00;99.90;;;;;;2018549;29;20310;-81
2023/05/07 04:03:47;;;;;;;6.37;4.40;;;9.00;99.90;;;;;;2007020;29;20373;-80
2023/05/07 04:04:49;;;;;;;6.90;4.20;;;10.90;99.90;;;;;;1998867;29;20674;-81
2023/05/07 04:05:50;;;;;;;4.60;3.92;;;9.00;99.90;;;;;;2015080;29;20232;-80
2023/05/07 04:06:51;;;;;;;6.70;4.03;;;9.00;99.90;;;;;;2013916;29;20235;-81
2023/05/07 04:07:52;;;;;;;6.15;4.60;;;9.10;99.90;;;;;;2011347;29;20235;-80
2023/05/07 04:08:52;;;;;;;7.60;4.50;;;9.90;99.90;;;;;;2025955;29;20352;-81
2023/05/07 04:09:53;;;;;;;4.50;4.10;;;9.20;99.90;;;;;;2023203;29;20319;-82
2023/05/07 04:10:58;;;;;;;6.97;4.43;;;9.20;99.90;;;;;;2018098;29;20627;-82
2023/05/07 04:11:58;;;;;;;7.65;4.63;;;9.30;99.90;;;;;;2014909;29;20276;-81
2023/05/07 04:12:59;;;;;;;5.07;4.23;;;9.30;99.90;;;;;;2014507;29;20232;-81
2023/05/07 04:14:00;;;;;;;4.50;3.93;;;9.30;99.90;;;;;;2022094;29;20241;-80
2023/05/07 04:15:00;;;;;;;5.40;3.97;;;9.20;99.90;;;;;;2021285;29;20312;-80
2023/05/07 04:16:03;;;;;;;4.83;4.33;;;9.20;99.90;;;;;;2014603;29;20206;-80
2023/05/07 04:17:05;;;;;;;4.70;4.15;;;9.30;99.90;;;;;;2013943;29;20219;-80
2023/05/07 04:18:06;;;;;;;4.80;3.92;;;9.30;99.90;;;;;;2022029;29;20207;-79
2023/05/07 04:19:07;;;;;;;5.20;4.20;;;9.30;99.90;;;;;;2014317;29;20191;-81
2023/05/07 04:20:14;;;;;;;5.10;4.30;;;9.30;99.90;;;;;;2014892;29;20285;-82
2023/05/07 04:21:20;;;;;;;5.43;4.10;;;9.40;99.90;;;;;;2022139;29;20190;-82
2023/05/07 04:22:20;;;;;;;4.43;3.45;;;9.30;99.90;;;;;;2014794;29;20281;-81
2023/05/07 04:23:21;;;;;;;6.63;3.87;;;9.40;99.90;;;;;;2014254;29;20234;-81
2023/05/07 04:24:22;;;;;;;6.13;3.50;;;9.30;99.90;;;;;;2018270;29;20245;-80
2023/05/07 04:25:26;;;;;;;4.47;3.80;;;9.30;99.90;;;;;;2003237;29;20314;-80
2023/05/07 04:26:27;;;;;;;4.20;3.65;;;9.30;99.90;;;;;;2006935;29;20230;-81
2023/05/07 04:27:28;;;;;;;5.75;3.92;;;9.50;99.90;;;;;;2014777;29;20238;-80
2023/05/07 04:28:28;;;;;;;4.90;3.80;;;9.40;99.90;;;;;;2015285;29;20265;-80
2023/05/07 04:29:29;;;;;;;4.93;3.77;;;9.40;99.90;;;;;;2014021;29;20255;-81
2023/05/07 04:30:30;;;;;;;8.97;4.50;;;9.40;99.90;;;;;;2014071;29;20235;-79
2023/05/07 04:31:31;;;;;;;4.70;3.73;;;9.40;99.90;;;;;;2006548;29;20227;-81
2023/05/07 04:32:32;;;;;;;3.60;3.30;;;9.40;99.90;;;;;;2014571;29;20256;-81
2023/05/07 04:33:33;;;;;;;4.37;3.83;;;10.40;99.90;;;;;;2018216;29;20253;-80
2023/05/07 04:34:34;;;;;;;4.25;3.85;;;9.40;99.90;;;;;;2003031;29;20234;-79
2023/05/07 04:35:35;;;;;;;4.97;3.67;;;9.30;99.90;;;;;;2006716;29;20236;-81
2023/05/07 04:36:37;;;;;;;5.53;3.85;;;9.30;99.90;;;;;;2002644;29;20241;-81
2023/05/07 04:37:38;;;;;;;7.18;4.22;;;9.30;99.90;;;;;;2010444;29;20263;-80
2023/05/07 04:38:39;;;;;;;5.37;3.73;;;9.30;99.90;;;;;;2014490;29;21051;-80
2023/05/07 04:39:40;;;;;;;7.93;3.73;;;9.30;99.90;;;;;;2025727;29;20233;-82
2023/05/07 04:40:41;;;;;;;5.13;4.00;;;9.30;99.90;;;;;;2033853;29;21000;-81
2023/05/07 04:41:41;;;;;;;4.17;3.40;;;9.30;99.90;;;;;;2021982;29;20234;-82
2023/05/07 04:42:42;;;;;;;3.73;3.30;;;9.30;99.90;;;;;;2021736;29;20242;-80
2023/05/07 04:43:43;;;;;;;6.33;4.73;;;9.30;99.90;;;;;;2017964;29;20243;-81
2023/05/07 04:44:45;;;;;;;5.67;4.37;;;10.60;99.90;;;;;;2010546;29;20317;-80
2023/05/07 04:45:45;;;;;;;5.78;4.20;;;9.40;99.90;;;;;;2022304;29;20237;-81
2023/05/07 04:46:46;;;;;;;4.93;4.40;;;9.40;99.90;;;;;;2015100;29;20241;-81
2023/05/07 04:47:47;;;;;;;6.53;4.93;;;11.50;99.90;;;;;;2011942;29;20345;-81
2023/05/07 04:48:47;;;;;;;6.50;4.63;;;9.50;99.90;;;;;;2026097;29;20231;-79
2023/05/07 04:49:48;;;;;;;6.10;4.47;;;9.50;99.90;;;;;;2026937;29;20232;-81
2023/05/07 04:50:50;;;;;;;6.50;4.13;;;9.50;99.90;;;;;;2021475;29;20233;-79
2023/05/07 04:51:51;;;;;;;6.88;5.30;;;9.50;99.90;;;;;;2006099;29;20240;-80
2023/05/07 04:52:51;;;;;;;5.70;4.47;;;9.60;99.90;;;;;;1998538;29;20243;-80
2023/05/07 04:53:52;;;;;;;6.30;4.60;;;9.60;99.90;;;;;;2005989;29;20292;-81
2023/05/07 04:54:53;;;;;;;7.80;4.07;;;11.00;99.90;;;;;;2021574;29;20263;-80
2023/05/07 04:55:57;;;;;;;6.33;4.10;;;10.40;99.90;;;;;;2023085;29;20318;-81
2023/05/07 04:56:58;;;;;;;4.55;3.90;;;10.80;99.90;;;;;;2025151;29;20808;-80
2023/05/07 04:58:01;;;;;;;5.97;4.20;;;9.70;99.90;;;;;;2025187;29;20232;-79
2023/05/07 04:59:01;;;;;;;5.80;3.55;;;9.70;99.90;;;;;;2020739;29;20239;-80
2023/05/07 05:00:04;;;;;;;3.43;3.13;;;9.70;99.90;;;;;;2021827;29;20219;-80
2023/05/07 05:01:04;;;;;;;6.43;3.80;;;10.70;99.90;;;;;;2025549;29;20189;-80
2023/05/07 05:02:05;;;;;;;5.07;3.40;;;9.80;99.90;;;;;;2025469;29;20266;-81
2023/05/07 05:03:07;;;;;;;3.60;2.87;;;9.80;99.90;;;;;;2009953;29;20196;-81
2023/05/07 05:04:07;;;;;;;5.03;3.55;;;9.80;99.90;;;;;;2009993;29;20279;-81
2023/05/07 05:05:08;;;;;;;4.60;3.50;;;9.90;99.90;;;;;;2016917;29;20214;-81
2023/05/07 05:06:09;;;;;;;6.70;3.30;;;9.90;99.90;;;;;;2009805;29;20198;-80
2023/05/07 05:07:10;;;;;;;4.28;3.63;;;9.90;99.90;;;;;;2017376;29;20212;-80
2023/05/07 05:08:11;;;;;;;4.70;4.03;;;9.90;99.90;;;;;;2021649;29;20659;-80
2023/05/07 05:09:11;;;;;;;5.70;4.17;;;9.80;99.90;;;;;;2006506;29;20603;-81
2023/05/07 05:10:12;;;;;;;4.87;3.47;;;9.80;99.90;;;;;;2013877;29;20209;-82
2023/05/07 05:11:13;;;;;;;6.83;4.23;;;9.80;99.90;;;;;;2025332;29;20197;-80
2023/05/07 05:12:14;;;;;;;6.17;4.33;;;9.90;99.90;;;;;;2025883;29;20192;-81
2023/05/07 05:13:14;;;;;;;5.20;4.23;;;10.00;99.90;;;;;;2025595;29;20193;-81
2023/05/07 05:14:15;;;;;;;5.27;3.73;;;10.10;99.90;;;;;;2024302;29;20280;-81
2023/05/07 05:15:16;;;;;;;4.03;3.63;;;10.10;99.90;;;;;;2017779;29;20668;-81
2023/05/07 05:16:16;;;;;;;4.73;3.97;;;10.10;99.90;;;;;;2014166;29;20634;-80
2023/05/07 05:17:17;;;;;;;4.67;3.30;;;10.20;99.90;;;;;;2023276;29;20226;-80
2023/05/07 05:18:18;;;;;;;4.20;3.63;;;10.30;99.90;;;;;;2034759;29;20185;-79
2023/05/07 05:19:20;;;;;;;6.07;4.50;;;10.30;99.90;;;;;;2026709;29;20269;-79
2023/05/07 05:20:20;;;;;;;5.88;4.20;;;10.50;99.90;;;;;;2020993;29;20249;-81
2023/05/07 05:21:21;;;;;;;4.60;3.87;;;10.60;99.90;;;;;;2011486;29;20310;-80